Terminal Aerodrome Forecast
Issued by NWS

Home | Current Version | Previous Version | Text Only | Print | Product List | Glossary Off
Versions: 1 2 3 4 5 6 7 8 9 10 11 12

000
FTUS43 KFGF 262340
TAFBJI
TAF
KBJI 262340Z 2700/2724 21006KT P6SM BKN070
     FM270500 VRB03KT P6SM BKN090
     FM272300 36006KT P6SM SCT250=

USA.gov is the U.S. government's official web portal to all federal, state and local government web resources and services.